Seal — PB4599 — position and weather

sailwx.info

Track history (hours):
 
Tides and Currents Weather Stations Pressure Air Temp Water Temp Dewpoint Dewpoint Depression Visibility Wind Speed Wind Dir Waves Ship Positions

Seal

Last reported at 2017-Aug-27 17:01 UTC. Time now 2017-Oct-20 05:00 UTC.
Position N 52°46' E 005°07'.
Warning: this ship's position is 53 days out of date.

Length 11 m.

Type: Pleasure craft. MMSI: 244660324.

Date/timePositionNaut miles runAvg speedWind from/ knotsBaromVisibWave heightAir tempDewpointWater temp
2017-Aug-27 17:01N 52°46' E 005°07'0 0.0
2017-Aug-27 16:58N 52°46' E 005°07'0 0.0
2017-Aug-27 16:28N 52°46' E 005°07'0 0.0
2017-Aug-27 15:58N 52°46' E 005°07'1 2.2
2017-Aug-27 15:31N 52°47' E 005°07'1 2.5
2017-Aug-27 15:00N 52°48' E 005°07'1 2.3
2017-Aug-27 14:30N 52°50' E 005°07'2 3.4
2017-Aug-27 14:00N 52°51' E 005°07'1 2.7
2017-Aug-27 13:30N 52°52' E 005°06'1 2.2
2017-Aug-27 13:00N 52°53' E 005°05'2 3.5
2017-Aug-27 12:30N 52°55' E 005°03'1 2.5
2017-Aug-27 11:59N 52°56' E 005°02'1 1.1
2017-Aug-27 11:30N 52°57' E 005°02'2 4.9
2017-Aug-27 11:00N 52°58' E 004°59'3 5.2
2017-Aug-27 10:30N 52°59' E 004°55'2 3.8
2017-Aug-27 10:00N 52°60' E 004°52'2 3.2
2017-Aug-27 09:29N 53°01' E 004°51'1 0.1
2017-Aug-26 15:23N 53°03' E 004°52'1 3.7
2017-Aug-26 15:00N 53°01' E 004°51'5 4.9
2017-Aug-26 14:00N 52°58' E 004°58'3 5.9
2017-Aug-26 13:30N 52°57' E 005°02'1 2.5
2017-Aug-26 12:59N 52°56' E 005°03'1 3.0
2017-Aug-26 12:30N 52°54' E 005°04'3 5.1
2017-Aug-26 12:00N 52°52' E 005°06'3 5.1
2017-Aug-26 11:30N 52°50' E 005°08'2 3.0
2017-Aug-26 10:58N 52°48' E 005°08'1 1.7
2017-Aug-26 10:30N 52°47' E 005°08'  
2017-Aug-20 14:16N 52°46' E 005°07'0 0.0
2017-Aug-20 13:58N 52°46' E 005°07'0 0.5
2017-Aug-20 13:30N 52°46' E 005°07'2 4.6
2017-Aug-20 13:01N 52°49' E 005°08'3 6.0
2017-Aug-20 12:31N 52°51' E 005°09'3 5.4
2017-Aug-20 12:00N 52°54' E 005°11'3 6.6
2017-Aug-20 11:30N 52°51' E 005°10'3 6.5
2017-Aug-20 11:00N 52°48' E 005°08'2 3.3
2017-Aug-20 10:29N 52°46' E 005°07'  
Track history (hours):
 
Tides and Currents Weather Stations Pressure Air Temp Water Temp Dewpoint Dewpoint Depression Visibility Wind Speed Wind Dir Waves Ship Positions

Seal

Last reported at 2017-Aug-27 17:01 UTC. Time now 2017-Oct-20 05:00 UTC.
Position N 52°46' E 005°07'.
Warning: this ship's position is 53 days out of date.

Length 11 m.

Type: Pleasure craft. MMSI: 244660324.

Date/timePositionNaut miles runAvg speedWind from/ knotsBaromVisibWave heightAir tempDewpointWater temp
2017-Aug-27 17:01N 52°46' E 005°07'0 0.0
2017-Aug-27 16:58N 52°46' E 005°07'0 0.0
2017-Aug-27 16:28N 52°46' E 005°07'0 0.0
2017-Aug-27 15:58N 52°46' E 005°07'1 2.2
2017-Aug-27 15:31N 52°47' E 005°07'1 2.5
2017-Aug-27 15:00N 52°48' E 005°07'1 2.3
2017-Aug-27 14:30N 52°50' E 005°07'2 3.4
2017-Aug-27 14:00N 52°51' E 005°07'1 2.7
2017-Aug-27 13:30N 52°52' E 005°06'1 2.2
2017-Aug-27 13:00N 52°53' E 005°05'2 3.5
2017-Aug-27 12:30N 52°55' E 005°03'1 2.5
2017-Aug-27 11:59N 52°56' E 005°02'1 1.1
2017-Aug-27 11:30N 52°57' E 005°02'2 4.9
2017-Aug-27 11:00N 52°58' E 004°59'3 5.2
2017-Aug-27 10:30N 52°59' E 004°55'2 3.8
2017-Aug-27 10:00N 52°60' E 004°52'2 3.2
2017-Aug-27 09:29N 53°01' E 004°51'1 0.1
2017-Aug-26 15:23N 53°03' E 004°52'1 3.7
2017-Aug-26 15:00N 53°01' E 004°51'5 4.9
2017-Aug-26 14:00N 52°58' E 004°58'3 5.9
2017-Aug-26 13:30N 52°57' E 005°02'1 2.5
2017-Aug-26 12:59N 52°56' E 005°03'1 3.0
2017-Aug-26 12:30N 52°54' E 005°04'3 5.1
2017-Aug-26 12:00N 52°52' E 005°06'3 5.1
2017-Aug-26 11:30N 52°50' E 005°08'2 3.0
2017-Aug-26 10:58N 52°48' E 005°08'1 1.7
2017-Aug-26 10:30N 52°47' E 005°08'  
2017-Aug-20 14:16N 52°46' E 005°07'0 0.0
2017-Aug-20 13:58N 52°46' E 005°07'0 0.5
2017-Aug-20 13:30N 52°46' E 005°07'2 4.6
2017-Aug-20 13:01N 52°49' E 005°08'3 6.0
2017-Aug-20 12:31N 52°51' E 005°09'3 5.4
2017-Aug-20 12:00N 52°54' E 005°11'3 6.6
2017-Aug-20 11:30N 52°51' E 005°10'3 6.5
2017-Aug-20 11:00N 52°48' E 005°08'2 3.3
2017-Aug-20 10:29N 52°46' E 005°07'  

Dump ship's entire track history